Time;durP1;ratioP1;P1;durP2;ratioP2;P2;SDS_P1;SDS_P2;PMS_P1;PMS_P2;Temp;Humidity;BMP_temperature;BMP_pressure;BME280_temperature;BME280_humidity;BME280_pressure;Samples;Min_cycle;Max_cycle;Signal;HPM_P1;HPM_P2
2021/12/19 00:10:29;;;;;;;7.07;6.68;;;;;;;;;;4863957;29;32252;-71
2021/12/19 00:12:58;;;;;;;6.70;6.30;;;;;;;;;;4865372;29;33986;-69
2021/12/19 00:15:26;;;;;;;6.05;5.65;;;;;;;;;;4866811;29;32383;-70
2021/12/19 00:17:54;;;;;;;6.43;6.03;;;;;;;;;;4868678;29;32534;-67
2021/12/19 00:20:22;;;;;;;6.22;5.85;;;;;;;;;;4868676;29;32432;-67
2021/12/19 00:22:50;;;;;;;6.68;6.18;;;;;;;;;;4868478;29;34008;-67
2021/12/19 00:25:18;;;;;;;6.50;6.10;;;;;;;;;;4867145;29;32549;-68
2021/12/19 00:27:47;;;;;;;6.35;5.85;;;;;;;;;;4866046;29;32456;-70
2021/12/19 00:30:15;;;;;;;5.57;5.22;;;;;;;;;;4866805;29;32817;-69
2021/12/19 00:32:43;;;;;;;6.38;5.97;;;;;;;;;;4867153;29;32366;-70
2021/12/19 00:35:11;;;;;;;6.25;5.85;;;;;;;;;;4866689;29;34155;-70
2021/12/19 00:37:39;;;;;;;6.25;5.85;;;;;;;;;;4867932;29;32579;-73
2021/12/19 00:40:08;;;;;;;5.65;5.35;;;;;;;;;;4868385;29;32356;-69
2021/12/19 00:42:38;;;;;;;5.93;5.53;;;;;;;;;;4866996;29;32360;-70
2021/12/19 00:45:16;;;;;;;6.05;5.75;;;;;;;;;;4868038;29;35252;-70
2021/12/19 00:47:45;;;;;;;7.15;6.55;;;;;;;;;;4867166;29;32434;-70
2021/12/19 00:50:14;;;;;;;5.85;5.45;;;;;;;;;;4865102;29;32478;-70
2021/12/19 00:52:42;;;;;;;5.90;5.50;;;;;;;;;;4865249;29;32502;-71
2021/12/19 00:55:11;;;;;;;5.93;5.53;;;;;;;;;;4865332;29;32500;-70
2021/12/19 00:57:38;;;;;;;6.32;5.93;;;;;;;;;;4864733;29;34121;-69
2021/12/19 01:00:12;;;;;;;6.53;5.28;;;;;;;;;;4865230;29;32591;-70
2021/12/19 01:02:40;;;;;;;6.50;6.00;;;;;;;;;;4865614;29;32667;-69
2021/12/19 01:05:10;;;;;;;5.55;5.25;;;;;;;;;;4868227;29;32441;-70
2021/12/19 01:07:38;;;;;;;6.63;6.13;;;;;;;;;;4867554;29;35204;-70
2021/12/19 01:10:09;;;;;;;5.88;5.47;;;;;;;;;;4867637;29;32553;-69
2021/12/19 01:12:38;;;;;;;6.22;5.82;;;;;;;;;;4867894;29;32453;-69
2021/12/19 01:15:13;;;;;;;5.82;5.32;;;;;;;;;;4867527;29;32327;-70
2021/12/19 01:17:41;;;;;;;5.72;5.32;;;;;;;;;;4867503;29;32593;-70
2021/12/19 01:20:14;;;;;;;5.53;5.22;;;;;;;;;;4867959;29;35139;-70
2021/12/19 01:22:42;;;;;;;6.35;5.95;;;;;;;;;;4868226;29;32457;-71
2021/12/19 01:25:11;;;;;;;5.97;5.57;;;;;;;;;;4867649;29;32319;-68
2021/12/19 01:27:39;;;;;;;6.00;5.60;;;;;;;;;;4867548;29;32124;-69
2021/12/19 01:30:11;;;;;;;6.25;5.85;;;;;;;;;;4867687;29;35419;-70
2021/12/19 01:32:39;;;;;;;;;;;;;;;;;;4868262;29;32405;-68
2021/12/19 01:35:09;;;;;;;5.80;5.43;;;;;;;;;;4867786;29;32341;-69
2021/12/19 01:37:37;;;;;;;6.32;5.72;;;;;;;;;;4867748;29;32386;-68
2021/12/19 01:40:08;;;;;;;6.47;5.97;;;;;;;;;;4867589;29;32313;-68
2021/12/19 01:42:40;;;;;;;6.20;5.80;;;;;;;;;;4867397;29;34543;-69
2021/12/19 01:45:13;;;;;;;;;;;;;;;;;;4868364;29;32408;-69
2021/12/19 01:47:42;;;;;;;5.97;5.57;;;;;;;;;;4867502;29;32623;-69
2021/12/19 01:50:11;;;;;;;5.75;5.35;;;;;;;;;;4867857;29;32567;-70
2021/12/19 01:52:39;;;;;;;6.20;5.75;;;;;;;;;;4867216;29;35227;-69
2021/12/19 01:55:09;;;;;;;5.97;5.57;;;;;;;;;;4867307;29;32375;-69
2021/12/19 01:57:37;;;;;;;6.13;5.65;;;;;;;;;;4867479;29;32378;-70
2021/12/19 02:00:08;;;;;;;5.72;5.32;;;;;;;;;;4867318;29;32432;-70
2021/12/19 02:02:37;;;;;;;6.30;5.90;;;;;;;;;;4867123;29;32246;-69
2021/12/19 02:05:06;;;;;;;6.20;5.78;;;;;;;;;;4866973;29;35496;-70
2021/12/19 02:07:34;;;;;;;6.18;5.78;;;;;;;;;;4870891;29;32387;-69
2021/12/19 02:10:03;;;;;;;6.03;5.60;;;;;;;;;;4885936;29;32499;-70
2021/12/19 02:12:31;;;;;;;6.18;5.78;;;;;;;;;;4881676;28;32608;-70
2021/12/19 02:14:59;;;;;;;6.65;6.25;;;;;;;;;;4866949;29;33994;-70
2021/12/19 02:17:27;;;;;;;6.20;5.80;;;;;;;;;;4866370;29;32438;-70
2021/12/19 02:19:58;;;;;;;6.78;6.38;;;;;;;;;;4866814;29;32523;-70
2021/12/19 02:22:27;;;;;;;6.10;5.70;;;;;;;;;;4866790;29;32316;-69
2021/12/19 02:24:55;;;;;;;6.47;5.97;;;;;;;;;;4867301;29;32489;-69
2021/12/19 02:27:29;;;;;;;6.50;6.10;;;;;;;;;;4866911;29;35068;-70
2021/12/19 02:29:57;;;;;;;6.53;6.05;;;;;;;;;;4867007;29;32187;-70
2021/12/19 02:32:28;;;;;;;5.97;5.57;;;;;;;;;;4866564;29;32446;-70
2021/12/19 02:34:59;;;;;;;5.85;5.45;;;;;;;;;;4866771;29;32375;-69
2021/12/19 02:48:35;;;;;;;5.03;4.63;;;;;;;;;;4867342;29;32440;-70
2021/12/19 02:51:03;;;;;;;5.75;5.35;;;;;;;;;;4866375;29;33983;-69
2021/12/19 02:53:35;;;;;;;5.85;5.45;;;;;;;;;;4866286;29;32412;-69
2021/12/19 02:56:06;;;;;;;5.78;5.43;;;;;;;;;;4866550;29;32458;-70
2021/12/19 02:58:35;;;;;;;5.40;5.00;;;;;;;;;;4866752;29;32340;-70
2021/12/19 03:01:08;;;;;;;5.80;5.40;;;;;;;;;;4866176;29;34043;-71
2021/12/19 03:03:36;;;;;;;5.97;5.57;;;;;;;;;;4866914;29;32406;-68
2021/12/19 03:06:05;;;;;;;5.80;5.32;;;;;;;;;;4866785;29;32324;-72
2021/12/19 03:08:41;;;;;;;6.13;5.55;;;;;;;;;;4866892;29;32395;-71
2021/12/19 03:19:21;;;;;;;7.15;6.55;;;;;;;;;;4866404;29;32203;-71
2021/12/19 03:21:50;;;;;;;6.75;6.25;;;;;;;;;;4866072;29;32462;-70
2021/12/19 03:24:19;;;;;;;6.32;5.93;;;;;;;;;;4865787;29;34456;-69
2021/12/19 03:26:47;;;;;;;6.38;5.93;;;;;;;;;;4866717;29;32403;-70
2021/12/19 03:29:15;;;;;;;5.75;5.35;;;;;;;;;;4866640;29;32406;-70
2021/12/19 03:31:44;;;;;;;6.93;6.43;;;;;;;;;;4865951;29;32421;-69
2021/12/19 03:34:13;;;;;;;7.28;6.63;;;;;;;;;;4866344;29;32146;-70
2021/12/19 03:36:41;;;;;;;6.10;5.60;;;;;;;;;;4865918;29;33941;-69
2021/12/19 03:39:14;;;;;;;6.57;6.07;;;;;;;;;;4865911;29;32562;-69
2021/12/19 03:41:44;;;;;;;6.57;6.15;;;;;;;;;;4865742;29;32352;-70
2021/12/19 03:44:12;;;;;;;7.03;6.63;;;;;;;;;;4866210;29;32591;-70
2021/12/19 03:46:40;;;;;;;7.07;6.57;;;;;;;;;;4865783;29;34111;-68
2021/12/19 03:49:08;;;;;;;7.32;6.63;;;;;;;;;;4865994;29;32514;-70
2021/12/19 03:51:36;;;;;;;7.10;6.60;;;;;;;;;;4868690;29;32422;-69
2021/12/19 03:54:04;;;;;;;6.97;6.53;;;;;;;;;;4868754;29;32574;-69
2021/12/19 03:56:32;;;;;;;7.53;6.93;;;;;;;;;;4868016;29;32283;-70
2021/12/19 03:59:02;;;;;;;6.93;6.32;;;;;;;;;;4868446;29;35705;-72
2021/12/19 04:01:30;;;;;;;7.28;6.75;;;;;;;;;;4871202;29;32654;-71
2021/12/19 04:03:59;;;;;;;7.10;6.60;;;;;;;;;;4867749;29;32586;-71
2021/12/19 04:06:27;;;;;;;8.05;7.30;;;;;;;;;;4867428;29;32309;-72
2021/12/19 04:08:56;;;;;;;7.25;6.85;;;;;;;;;;4868473;29;34725;-72
2021/12/19 04:11:25;;;;;;;6.75;6.35;;;;;;;;;;4867997;29;32440;-71
2021/12/19 04:13:53;;;;;;;6.25;5.85;;;;;;;;;;4868519;29;32139;-71
2021/12/19 04:16:23;;;;;;;6.53;6.10;;;;;;;;;;4868367;29;32390;-72
2021/12/19 04:18:51;;;;;;;6.32;5.93;;;;;;;;;;4868700;29;32381;-71
2021/12/19 04:21:19;;;;;;;6.18;5.78;;;;;;;;;;4868886;29;32634;-72
2021/12/19 04:23:47;;;;;;;6.10;5.70;;;;;;;;;;4868363;29;32499;-71
2021/12/19 04:26:15;;;;;;;5.90;5.38;;;;;;;;;;4868485;29;32389;-70
2021/12/19 04:28:43;;;;;;;5.47;5.18;;;;;;;;;;4868402;29;32326;-73
2021/12/19 04:31:11;;;;;;;5.20;4.90;;;;;;;;;;4865217;29;34500;-72
2021/12/19 04:33:42;;;;;;;5.28;4.82;;;;;;;;;;4871640;29;32559;-71
2021/12/19 04:36:15;;;;;;;5.10;4.80;;;;;;;;;;4877147;29;32999;-71
2021/12/19 04:44:46;;;;;;;5.75;5.35;;;;;;;;;;4876423;29;32535;-71
2021/12/19 04:58:46;;;;;;;4.78;4.47;;;;;;;;;;4876065;29;32472;-71
2021/12/19 05:01:27;;;;;;;5.43;4.93;;;;;;;;;;4877636;29;32567;-72
2021/12/19 05:04:07;;;;;;;4.95;4.50;;;;;;;;;;4877745;29;32528;-72
2021/12/19 05:14:00;;;;;;;4.57;4.28;;;;;;;;;;4875465;29;32481;-71
2021/12/19 05:15:08;;;;;;;5.22;4.80;;;;;;;;;;4875553;29;32431;-73
2021/12/19 05:17:36;;;;;;;5.75;5.00;;;;;;;;;;4874905;29;32598;-72
2021/12/19 05:20:13;;;;;;;5.45;5.05;;;;;;;;;;4875374;29;35793;-73
2021/12/19 05:22:47;;;;;;;5.10;4.70;;;;;;;;;;4878383;29;32437;-72
2021/12/19 05:25:17;;;;;;;5.63;4.93;;;;;;;;;;4885063;29;32427;-71
2021/12/19 05:27:47;;;;;;;5.10;4.80;;;;;;;;;;4874790;29;32410;-72
2021/12/19 05:30:17;;;;;;;5.43;5.13;;;;;;;;;;4874413;28;32560;-71
2021/12/19 05:32:47;;;;;;;6.00;5.53;;;;;;;;;;4880518;28;32635;-70
2021/12/19 05:35:23;;;;;;;6.43;5.93;;;;;;;;;;4871357;28;32582;-71
2021/12/19 05:46:08;;;;;;;5.35;5.05;;;;;;;;;;4874528;29;32452;-70
2021/12/19 05:48:37;;;;;;;5.45;5.05;;;;;;;;;;4876950;29;32462;-70
2021/12/19 05:51:05;;;;;;;4.80;4.43;;;;;;;;;;4877790;29;32386;-70
2021/12/19 05:53:34;;;;;;;5.45;5.15;;;;;;;;;;4876017;29;32444;-69
2021/12/19 05:56:03;;;;;;;4.57;4.28;;;;;;;;;;4874902;29;32228;-69
2021/12/19 05:58:31;;;;;;;5.10;4.68;;;;;;;;;;4872780;28;32433;-71
2021/12/19 06:01:00;;;;;;;5.50;5.00;;;;;;;;;;4876480;29;32499;-72
2021/12/19 06:03:28;;;;;;;5.03;4.63;;;;;;;;;;4875649;29;32427;-72
2021/12/19 06:05:56;;;;;;;5.30;4.95;;;;;;;;;;4875676;28;35040;-74
2021/12/19 06:08:24;;;;;;;5.45;5.00;;;;;;;;;;4875513;29;32462;-71
2021/12/19 06:10:53;;;;;;;4.63;4.30;;;;;;;;;;4873535;29;32681;-73
2021/12/19 06:13:21;;;;;;;4.95;4.65;;;;;;;;;;4875483;29;32518;-72
2021/12/19 06:15:52;;;;;;;4.45;4.15;;;;;;;;;;4881095;29;32540;-71
2021/12/19 06:18:20;;;;;;;4.50;4.20;;;;;;;;;;4883604;28;32689;-76
2021/12/19 06:20:48;;;;;;;4.38;4.18;;;;;;;;;;4880358;29;32145;-72
2021/12/19 06:23:17;;;;;;;4.50;4.20;;;;;;;;;;4875974;29;32324;-74
2021/12/19 06:25:46;;;;;;;4.10;3.80;;;;;;;;;;4876991;29;32499;-72
2021/12/19 06:28:17;;;;;;;4.60;4.30;;;;;;;;;;4874355;29;35464;-71
2021/12/19 06:30:45;;;;;;;4.13;3.92;;;;;;;;;;4875718;29;32678;-71
2021/12/19 06:33:13;;;;;;;4.20;4.00;;;;;;;;;;4874311;29;32453;-69
2021/12/19 06:35:42;;;;;;;4.57;4.28;;;;;;;;;;4874742;29;32398;-70
2021/12/19 06:38:12;;;;;;;3.72;3.53;;;;;;;;;;4875778;29;35802;-68
2021/12/19 06:40:40;;;;;;;4.20;4.00;;;;;;;;;;4874630;29;32489;-72
2021/12/19 06:43:08;;;;;;;4.28;3.97;;;;;;;;;;4884717;29;32427;-73
2021/12/19 06:45:38;;;;;;;4.30;4.00;;;;;;;;;;4885012;29;32491;-71
2021/12/19 06:48:07;;;;;;;4.13;3.92;;;;;;;;;;4884987;28;32374;-72
2021/12/19 06:50:35;;;;;;;3.88;3.58;;;;;;;;;;4884648;28;33944;-68
2021/12/19 06:53:03;;;;;;;4.03;3.72;;;;;;;;;;4877802;28;32627;-71
2021/12/19 06:55:31;;;;;;;3.72;3.53;;;;;;;;;;4871255;28;32454;-72
2021/12/19 06:58:00;;;;;;;4.07;3.88;;;;;;;;;;4878409;29;32560;-74
2021/12/19 07:00:28;;;;;;;3.80;3.60;;;;;;;;;;4869563;29;34490;-69
2021/12/19 07:03:00;;;;;;;3.58;3.38;;;;;;;;;;4870062;29;32550;-73
2021/12/19 07:05:28;;;;;;;4.05;3.85;;;;;;;;;;4874056;28;32461;-70
2021/12/19 07:07:56;;;;;;;3.72;3.42;;;;;;;;;;4882316;29;32166;-70
2021/12/19 07:11:52;;;;;;;16.27;4.45;;;;;;;;;;4292661;32;33660;-72
2021/12/19 07:14:22;;;;;;;6.20;4.25;;;;;;;;;;4922384;28;32342;-70
2021/12/19 07:16:50;;;;;;;7.20;4.18;;;;;;;;;;4923730;28;34014;-70
2021/12/19 07:19:18;;;;;;;5.38;4.05;;;;;;;;;;4909452;28;32607;-69
2021/12/19 07:21:46;;;;;;;3.95;3.55;;;;;;;;;;4924974;28;32420;-70
2021/12/19 07:24:15;;;;;;;4.20;3.80;;;;;;;;;;4914798;28;32573;-71
2021/12/19 07:26:43;;;;;;;4.55;3.95;;;;;;;;;;4924049;28;32500;-74
2021/12/19 07:29:15;;;;;;;3.38;3.08;;;;;;;;;;4923971;28;34601;-70
2021/12/19 07:31:43;;;;;;;6.35;3.70;;;;;;;;;;4931488;28;32326;-73
2021/12/19 07:34:11;;;;;;;3.38;3.08;;;;;;;;;;4923972;28;32468;-72
2021/12/19 07:36:42;;;;;;;5.03;3.55;;;;;;;;;;4914963;28;32474;-73
2021/12/19 07:39:21;;;;;;;4.67;4.37;;;;;;;;;;4938481;28;34978;-69
2021/12/19 07:41:49;;;;;;;3.60;3.30;;;;;;;;;;4938859;28;32389;-69
2021/12/19 07:44:19;;;;;;;4.20;3.90;;;;;;;;;;4930329;28;32473;-71
2021/12/19 07:46:46;;;;;;;3.78;3.50;;;;;;;;;;4938217;28;32442;-70
2021/12/19 07:49:15;;;;;;;3.70;3.40;;;;;;;;;;4936628;28;32131;-69
2021/12/19 07:51:43;;;;;;;3.85;3.55;;;;;;;;;;4937668;28;35517;-71
2021/12/19 07:54:11;;;;;;;3.97;3.67;;;;;;;;;;4937310;28;32556;-71
2021/12/19 07:56:39;;;;;;;6.45;3.78;;;;;;;;;;4938370;28;32445;-70
2021/12/19 07:59:07;;;;;;;3.85;3.55;;;;;;;;;;4938366;28;32135;-70
2021/12/19 08:01:36;;;;;;;3.10;2.90;;;;;;;;;;4923499;28;34074;-70
2021/12/19 08:04:05;;;;;;;3.40;3.20;;;;;;;;;;4919227;28;32506;-69
2021/12/19 08:06:33;;;;;;;3.58;3.28;;;;;;;;;;4919031;28;32613;-70
2021/12/19 08:09:08;;;;;;;3.13;2.92;;;;;;;;;;4918634;28;32421;-70
2021/12/19 08:11:42;;;;;;;3.20;3.00;;;;;;;;;;4918134;28;32420;-70
2021/12/19 08:14:13;;;;;;;3.10;2.90;;;;;;;;;;4919168;28;34170;-71
2021/12/19 08:16:44;;;;;;;2.85;2.65;;;;;;;;;;4919026;28;32391;-70
2021/12/19 08:19:13;;;;;;;3.03;2.83;;;;;;;;;;4918917;28;32425;-71
2021/12/19 08:21:41;;;;;;;3.13;2.92;;;;;;;;;;4914508;28;32325;-71
2021/12/19 08:24:12;;;;;;;3.30;3.10;;;;;;;;;;4905931;28;34018;-71
2021/12/19 08:26:42;;;;;;;2.90;2.70;;;;;;;;;;4905706;28;32485;-71
2021/12/19 08:29:11;;;;;;;3.55;3.13;;;;;;;;;;4906250;28;32486;-71
2021/12/19 08:31:39;;;;;;;3.03;2.85;;;;;;;;;;4905750;28;32383;-71
2021/12/19 08:34:09;;;;;;;3.20;3.00;;;;;;;;;;4905948;28;32457;-71
2021/12/19 08:36:37;;;;;;;3.30;3.10;;;;;;;;;;4905491;28;34062;-71
2021/12/19 08:39:06;;;;;;;3.08;2.85;;;;;;;;;;4905538;28;32519;-71
2021/12/19 08:41:34;;;;;;;3.30;3.10;;;;;;;;;;4905825;28;32503;-73
2021/12/19 08:44:02;;;;;;;3.08;2.78;;;;;;;;;;4906098;28;32582;-70
2021/12/19 08:46:32;;;;;;;3.08;2.88;;;;;;;;;;4905783;28;34534;-70
2021/12/19 08:49:00;;;;;;;3.00;2.80;;;;;;;;;;4905744;28;32585;-69
2021/12/19 08:51:31;;;;;;;2.50;2.40;;;;;;;;;;4905838;28;32345;-70
2021/12/19 08:54:00;;;;;;;3.00;2.80;;;;;;;;;;4905831;28;32193;-71
2021/12/19 08:56:28;;;;;;;2.50;2.30;;;;;;;;;;4905493;28;32616;-71
2021/12/19 08:58:56;;;;;;;3.35;3.15;;;;;;;;;;4905380;28;35073;-70
2021/12/19 09:01:24;;;;;;;3.35;3.15;;;;;;;;;;4905095;28;32372;-70
2021/12/19 09:03:52;;;;;;;2.83;2.60;;;;;;;;;;4905713;28;32385;-71
2021/12/19 09:06:21;;;;;;;2.75;2.55;;;;;;;;;;4905353;28;32468;-71
2021/12/19 09:08:50;;;;;;;2.83;2.63;;;;;;;;;;4906073;28;35086;-72
2021/12/19 09:11:18;;;;;;;2.80;2.60;;;;;;;;;;4904686;28;32474;-70
2021/12/19 09:13:46;;;;;;;2.67;2.47;;;;;;;;;;4905515;28;32321;-70
2021/12/19 09:16:14;;;;;;;2.50;2.30;;;;;;;;;;4905733;28;32533;-68
2021/12/19 09:18:42;;;;;;;2.50;2.35;;;;;;;;;;4905801;28;32314;-69
2021/12/19 09:21:10;;;;;;;2.53;2.33;;;;;;;;;;4905010;28;34763;-70
2021/12/19 09:23:38;;;;;;;2.20;2.10;;;;;;;;;;4905278;28;32466;-69
2021/12/19 09:26:08;;;;;;;2.40;2.30;;;;;;;;;;4905436;28;32204;-71
2021/12/19 09:28:36;;;;;;;2.88;2.67;;;;;;;;;;4905369;28;32450;-70
2021/12/19 09:31:04;;;;;;;2.92;2.72;;;;;;;;;;4904995;28;34598;-70
2021/12/19 09:33:32;;;;;;;2.80;2.70;;;;;;;;;;4904369;28;32435;-70
2021/12/19 09:36:00;;;;;;;3.00;2.75;;;;;;;;;;4905839;28;32454;-70
2021/12/19 09:38:29;;;;;;;2.33;2.22;;;;;;;;;;4904970;28;32366;-69
2021/12/19 09:41:01;;;;;;;2.85;2.70;;;;;;;;;;4905410;28;32556;-71
2021/12/19 09:43:42;;;;;;;2.65;2.45;;;;;;;;;;4904862;28;35580;-72
2021/12/19 09:46:15;;;;;;;2.83;2.65;;;;;;;;;;4905687;28;32312;-71
2021/12/19 09:48:47;;;;;;;3.63;3.42;;;;;;;;;;4905388;28;32259;-71
2021/12/19 09:51:16;;;;;;;;;;;;;;;;;;4905597;28;32288;-70
2021/12/19 09:53:45;;;;;;;3.10;2.90;;;;;;;;;;4904936;28;35237;-70
2021/12/19 09:56:14;;;;;;;2.65;2.45;;;;;;;;;;4905175;28;32208;-72
2021/12/19 09:58:44;;;;;;;3.10;2.90;;;;;;;;;;4904448;28;32353;-71
2021/12/19 10:01:13;;;;;;;2.90;2.70;;;;;;;;;;4904941;28;32514;-70
2021/12/19 10:03:42;;;;;;;3.92;3.58;;;;;;;;;;4912102;28;32487;-70
2021/12/19 10:06:17;;;;;;;3.15;2.95;;;;;;;;;;4907838;28;35336;-71
2021/12/19 10:08:45;;;;;;;3.38;3.08;;;;;;;;;;4907766;28;32207;-71
2021/12/19 10:11:35;;;;;;;2.95;2.75;;;;;;;;;;4904460;28;32388;-71
2021/12/19 10:14:24;;;;;;;3.30;3.10;;;;;;;;;;4901407;28;32616;-72
2021/12/19 10:16:52;;;;;;;3.40;3.20;;;;;;;;;;4908847;28;33966;-71
2021/12/19 10:19:21;;;;;;;3.35;3.15;;;;;;;;;;4901429;28;32855;-71
2021/12/19 10:21:49;;;;;;;3.30;3.10;;;;;;;;;;4889856;28;33560;-71
2021/12/19 10:24:35;;;;;;;3.72;3.42;;;;;;;;;;4910909;28;32376;-71
2021/12/19 10:27:04;;;;;;;3.55;3.28;;;;;;;;;;4906761;28;33078;-71
2021/12/19 10:29:54;;;;;;;3.63;3.42;;;;;;;;;;4914372;28;33990;-70
2021/12/19 10:32:22;;;;;;;3.60;3.33;;;;;;;;;;4904532;28;33827;-69
2021/12/19 10:34:50;;;;;;;3.63;3.33;;;;;;;;;;4909850;28;32314;-72
2021/12/19 10:37:34;;;;;;;4.07;3.78;;;;;;;;;;4910820;28;32486;-72
2021/12/19 10:40:04;;;;;;;4.40;4.10;;;;;;;;;;4909348;28;35008;-73
2021/12/19 10:42:35;;;;;;;4.15;3.58;;;;;;;;;;4900739;28;33346;-73
2021/12/19 10:47:51;;;;;;;4.10;3.80;;;;;;;;;;4905675;28;32632;-70
2021/12/19 10:50:19;;;;;;;3.95;3.75;;;;;;;;;;4905699;28;32660;-70
2021/12/19 10:52:48;;;;;;;4.05;3.80;;;;;;;;;;4909641;28;34232;-74
2021/12/19 10:55:17;;;;;;;3.97;3.78;;;;;;;;;;4907958;28;32530;-70
2021/12/19 10:57:46;;;;;;;5.25;4.18;;;;;;;;;;4898750;28;32525;-71
2021/12/19 11:00:28;;;;;;;4.03;3.72;;;;;;;;;;4905790;28;32615;-72
2021/12/19 11:02:56;;;;;;;3.53;3.33;;;;;;;;;;4906716;28;34648;-73
2021/12/19 11:05:42;;;;;;;3.95;3.55;;;;;;;;;;4902757;28;32588;-71
2021/12/19 11:08:11;;;;;;;3.80;3.60;;;;;;;;;;4907054;28;32417;-71
2021/12/19 11:10:41;;;;;;;4.30;4.10;;;;;;;;;;4904632;28;32505;-70
2021/12/19 11:13:11;;;;;;;4.43;4.13;;;;;;;;;;4906556;28;32471;-74
2021/12/19 11:15:41;;;;;;;4.28;3.97;;;;;;;;;;4906649;28;34609;-71
2021/12/19 11:18:10;;;;;;;4.03;3.83;;;;;;;;;;4905714;28;32523;-72
2021/12/19 11:20:38;;;;;;;4.50;4.20;;;;;;;;;;4913241;28;32625;-71
2021/12/19 11:23:09;;;;;;;3.90;3.70;;;;;;;;;;4886618;28;32398;-74
2021/12/19 11:25:38;;;;;;;4.68;4.38;;;;;;;;;;4907274;28;35086;-74
2021/12/19 11:28:07;;;;;;;4.50;4.20;;;;;;;;;;4902252;28;33271;-72
2021/12/19 11:30:36;;;;;;;3.78;3.55;;;;;;;;;;4903753;28;32436;-72
2021/12/19 11:33:21;;;;;;;3.80;3.50;;;;;;;;;;4898575;28;32459;-74
2021/12/19 11:35:51;;;;;;;4.00;3.70;;;;;;;;;;4902741;28;32874;-70
2021/12/19 11:38:23;;;;;;;3.50;3.23;;;;;;;;;;4903931;28;32466;-72
2021/12/19 11:40:52;;;;;;;3.60;3.30;;;;;;;;;;4902087;28;32550;-73
2021/12/19 11:43:20;;;;;;;3.55;3.25;;;;;;;;;;4905153;28;32978;-72
2021/12/19 11:46:01;;;;;;;3.50;3.30;;;;;;;;;;4905177;28;32508;-71
2021/12/19 11:48:33;;;;;;;3.40;3.20;;;;;;;;;;4904105;28;34030;-73
2021/12/19 11:51:03;;;;;;;4.22;3.92;;;;;;;;;;4904363;28;32471;-74
2021/12/19 11:53:33;;;;;;;4.57;4.28;;;;;;;;;;4901837;28;33586;-71
2021/12/19 11:56:10;;;;;;;4.15;3.88;;;;;;;;;;4906403;28;32648;-72
2021/12/19 11:58:45;;;;;;;3.85;3.55;;;;;;;;;;4908162;28;32627;-72
2021/12/19 12:01:16;;;;;;;4.18;3.88;;;;;;;;;;4890876;28;32660;-72
2021/12/19 12:03:55;;;;;;;3.85;3.58;;;;;;;;;;4906016;28;32529;-72
2021/12/19 12:06:38;;;;;;;3.63;3.35;;;;;;;;;;4905202;28;32616;-71
2021/12/19 12:09:24;;;;;;;2.88;2.67;;;;;;;;;;4916530;28;32400;-74
2021/12/19 12:12:22;;;;;;;3.28;2.97;;;;;;;;;;4908148;28;34563;-71
2021/12/19 12:15:08;;;;;;;3.13;2.92;;;;;;;;;;4895071;28;32514;-73
2021/12/19 12:17:49;;;;;;;3.20;3.00;;;;;;;;;;4907600;28;32441;-72
2021/12/19 12:20:30;;;;;;;3.03;2.83;;;;;;;;;;4911520;28;32580;-71
2021/12/19 12:23:06;;;;;;;3.08;2.85;;;;;;;;;;4911179;28;32835;-71
2021/12/19 12:25:41;;;;;;;3.03;2.72;;;;;;;;;;4903154;28;32312;-68
2021/12/19 12:28:15;;;;;;;4.35;2.65;;;;;;;;;;4910124;28;32789;-67
2021/12/19 12:30:46;;;;;;;7.15;3.08;;;;;;;;;;4904496;28;32479;-69
2021/12/19 12:33:17;;;;;;;5.95;2.80;;;;;;;;;;4898821;28;32756;-67
2021/12/19 12:35:49;;;;;;;2.60;2.40;;;;;;;;;;4903616;28;36502;-69
2021/12/19 12:38:19;;;;;;;2.65;2.45;;;;;;;;;;4910104;28;33166;-68
2021/12/19 12:40:56;;;;;;;2.50;2.30;;;;;;;;;;4910929;28;32515;-67
2021/12/19 12:43:26;;;;;;;2.28;2.17;;;;;;;;;;4910581;28;32443;-66
2021/12/19 12:46:10;;;;;;;2.83;2.63;;;;;;;;;;4907674;28;32376;-67
2021/12/19 12:48:54;;;;;;;2.50;2.30;;;;;;;;;;4912246;28;32309;-69
2021/12/19 12:51:36;;;;;;;1.98;1.88;;;;;;;;;;4906307;28;32424;-68
2021/12/19 12:54:08;;;;;;;3.97;2.35;;;;;;;;;;4905519;28;32575;-68
2021/12/19 12:56:41;;;;;;;2.20;2.10;;;;;;;;;;4910519;28;32724;-69
2021/12/19 12:59:10;;;;;;;2.17;2.08;;;;;;;;;;4907404;28;35589;-67
2021/12/19 13:01:41;;;;;;;2.05;1.95;;;;;;;;;;4908678;28;32490;-68
2021/12/19 13:04:16;;;;;;;1.95;1.85;;;;;;;;;;4906630;28;32898;-67
2021/12/19 13:06:53;;;;;;;2.38;2.22;;;;;;;;;;4908138;28;32586;-65
2021/12/19 13:09:26;;;;;;;2.25;2.15;;;;;;;;;;4905198;28;31788;-66
2021/12/19 13:12:01;;;;;;;3.72;2.42;;;;;;;;;;4907251;28;33001;-67
2021/12/19 13:14:32;;;;;;;2.17;2.00;;;;;;;;;;4908563;28;32596;-65
2021/12/19 13:17:04;;;;;;;2.17;2.07;;;;;;;;;;4905357;28;32906;-68
2021/12/19 13:19:48;;;;;;;3.00;2.17;;;;;;;;;;4878206;28;33550;-65
2021/12/19 13:22:27;;;;;;;2.35;2.25;;;;;;;;;;4908605;28;33985;-67
2021/12/19 13:24:58;;;;;;;1.67;1.58;;;;;;;;;;4895520;28;32683;-66
2021/12/19 13:27:29;;;;;;;2.20;2.00;;;;;;;;;;4906146;28;32529;-65
2021/12/19 13:30:13;;;;;;;2.13;2.03;;;;;;;;;;4907342;28;32448;-65
2021/12/19 13:32:43;;;;;;;2.08;1.98;;;;;;;;;;4909157;28;32480;-66
2021/12/19 13:35:20;;;;;;;2.03;1.92;;;;;;;;;;4897926;28;33415;-65
2021/12/19 13:52:17;;;;;;;2.20;2.10;;;;;;;;;;4773227;28;34150;-68
2021/12/19 13:54:48;;;;;;;2.33;2.22;;;;;;;;;;4894519;28;32944;-69
2021/12/19 13:57:22;;;;;;;2.10;2.00;;;;;;;;;;4902750;28;32563;-68
2021/12/19 13:59:50;;;;;;;2.20;2.10;;;;;;;;;;4904339;28;32906;-69
2021/12/19 14:02:19;;;;;;;2.03;1.92;;;;;;;;;;4904197;28;34695;-67
2021/12/19 14:04:47;;;;;;;1.98;1.88;;;;;;;;;;4905240;28;32482;-70
2021/12/19 14:07:15;;;;;;;2.00;1.90;;;;;;;;;;4908914;28;32825;-71
2021/12/19 14:09:46;;;;;;;2.20;2.10;;;;;;;;;;4887114;28;32422;-69
2021/12/19 14:12:26;;;;;;;1.80;1.70;;;;;;;;;;4904787;28;32883;-69
2021/12/19 14:14:54;;;;;;;2.05;1.95;;;;;;;;;;4908989;28;33940;-71
2021/12/19 14:17:30;;;;;;;1.77;1.67;;;;;;;;;;4907391;28;32495;-69
2021/12/19 14:20:01;;;;;;;1.92;1.83;;;;;;;;;;4906929;28;32562;-73
2021/12/19 14:22:31;;;;;;;;;;;;;;;;;;4909240;28;32561;-75
2021/12/19 14:25:02;;;;;;;1.92;1.83;;;;;;;;;;4891011;28;36524;-74
2021/12/19 14:27:36;;;;;;;2.08;1.88;;;;;;;;;;4906524;28;32460;-75
2021/12/19 14:30:09;;;;;;;1.90;1.80;;;;;;;;;;4909897;28;32503;-73
2021/12/19 14:32:46;;;;;;;1.70;1.60;;;;;;;;;;4904838;28;32647;-72
2021/12/19 14:35:19;;;;;;;1.70;1.60;;;;;;;;;;4907748;28;32735;-69
2021/12/19 14:37:50;;;;;;;2.33;2.22;;;;;;;;;;4906163;28;34651;-74
2021/12/19 14:40:23;;;;;;;2.35;2.25;;;;;;;;;;4905551;28;32595;-71
2021/12/19 14:42:57;;;;;;;2.95;2.38;;;;;;;;;;4906916;28;32642;-73
2021/12/19 14:45:29;;;;;;;2.00;1.90;;;;;;;;;;4892063;28;32734;-71
2021/12/19 14:48:04;;;;;;;2.38;2.13;;;;;;;;;;4905434;28;34080;-70
2021/12/19 14:50:34;;;;;;;2.45;2.25;;;;;;;;;;4903937;28;32493;-71
2021/12/19 14:53:09;;;;;;;2.40;2.30;;;;;;;;;;4905095;28;32526;-69
2021/12/19 14:55:43;;;;;;;2.08;1.98;;;;;;;;;;4899201;28;33405;-72
2021/12/19 14:58:12;;;;;;;3.35;1.83;;;;;;;;;;4906681;28;32538;-71
2021/12/19 15:00:43;;;;;;;2.53;2.42;;;;;;;;;;4895847;28;34950;-71
2021/12/19 15:03:12;;;;;;;2.38;2.17;;;;;;;;;;4908111;28;32484;-71
2021/12/19 15:05:42;;;;;;;2.38;2.17;;;;;;;;;;4905285;28;32806;-69
2021/12/19 15:08:14;;;;;;;2.42;2.22;;;;;;;;;;4907789;28;32431;-73
2021/12/19 15:10:44;;;;;;;4.75;2.70;;;;;;;;;;4904021;28;34708;-72
2021/12/19 15:13:12;;;;;;;2.17;2.08;;;;;;;;;;4906405;28;32423;-69
2021/12/19 15:15:40;;;;;;;2.53;2.42;;;;;;;;;;4908219;28;33241;-70
2021/12/19 15:18:08;;;;;;;2.83;2.63;;;;;;;;;;4906778;28;32392;-72
2021/12/19 15:20:36;;;;;;;2.63;2.42;;;;;;;;;;4906627;28;32674;-68
2021/12/19 15:23:05;;;;;;;2.75;2.55;;;;;;;;;;4905188;28;34557;-70
2021/12/19 15:25:34;;;;;;;2.20;2.10;;;;;;;;;;4902909;28;32475;-73
2021/12/19 15:28:04;;;;;;;2.47;2.38;;;;;;;;;;4905219;28;32544;-70
2021/12/19 15:30:32;;;;;;;3.65;2.60;;;;;;;;;;4907694;28;32465;-72
2021/12/19 15:33:00;;;;;;;2.88;2.67;;;;;;;;;;4907312;28;34492;-72
2021/12/19 15:35:30;;;;;;;3.05;2.85;;;;;;;;;;4908515;28;32913;-72
2021/12/19 15:37:59;;;;;;;3.05;2.80;;;;;;;;;;4912395;28;32379;-76
2021/12/19 15:40:27;;;;;;;3.10;2.90;;;;;;;;;;4913950;28;32647;-74
2021/12/19 15:42:55;;;;;;;2.63;2.42;;;;;;;;;;4908209;28;32445;-72
2021/12/19 15:45:25;;;;;;;2.40;2.30;;;;;;;;;;4906962;28;35429;-71
2021/12/19 15:47:53;;;;;;;2.38;2.28;;;;;;;;;;4911155;28;32441;-71
2021/12/19 15:50:21;;;;;;;2.60;2.40;;;;;;;;;;4912598;28;32606;-72
2021/12/19 15:52:49;;;;;;;2.30;2.20;;;;;;;;;;4907305;28;32602;-71
2021/12/19 15:55:18;;;;;;;2.78;2.63;;;;;;;;;;4908020;28;35483;-73
2021/12/19 15:57:46;;;;;;;3.15;2.95;;;;;;;;;;4909049;28;32635;-73
2021/12/19 16:00:18;;;;;;;3.47;2.78;;;;;;;;;;4901166;28;32606;-71
2021/12/19 16:02:48;;;;;;;2.90;2.70;;;;;;;;;;4910040;28;32769;-71
2021/12/19 16:05:16;;;;;;;2.97;2.78;;;;;;;;;;4898943;28;32966;-71
2021/12/19 16:07:44;;;;;;;3.13;2.92;;;;;;;;;;4905565;28;35544;-75
2021/12/19 16:10:13;;;;;;;2.55;2.45;;;;;;;;;;4906674;28;33004;-75
2021/12/19 16:12:44;;;;;;;2.70;2.60;;;;;;;;;;4888453;28;32467;-70
2021/12/19 16:15:14;;;;;;;3.08;2.88;;;;;;;;;;4903821;28;32506;-73
2021/12/19 16:17:47;;;;;;;4.10;2.85;;;;;;;;;;4903327;28;34203;-76
2021/12/19 16:20:18;;;;;;;3.15;2.95;;;;;;;;;;4910190;28;32564;-72
2021/12/19 16:22:46;;;;;;;3.28;3.08;;;;;;;;;;4913102;28;32532;-71